Time;durP1;ratioP1;P1;durP2;ratioP2;P2;SDS_P1;SDS_P2;PMS_P1;PMS_P2;Temp;Humidity;BMP_temperature;BMP_pressure;BME280_temperature;BME280_humidity;BME280_pressure;Samples;Min_cycle;Max_cycle;Signal;HPM_P1;HPM_P2
2023/12/09 00:01:28;;;;;;;144.73;41.38;;;7.40;99.90;;;;;;4986066;28;20077;-47
2023/12/09 00:03:54;;;;;;;144.73;40.88;;;7.40;99.90;;;;;;4968825;28;20039;-50
2023/12/09 00:06:19;;;;;;;164.45;39.38;;;7.40;99.90;;;;;;4984841;28;20463;-46
2023/12/09 00:08:45;;;;;;;148.05;38.28;;;7.40;99.90;;;;;;4983452;28;20042;-48
2023/12/09 00:11:11;;;;;;;143.63;38.63;;;7.50;99.90;;;;;;4983885;28;20768;-46
2023/12/09 00:13:37;;;;;;;139.38;38.00;;;7.50;99.90;;;;;;4983641;28;20070;-47
2023/12/09 00:16:04;;;;;;;128.07;38.20;;;7.50;99.90;;;;;;4986058;28;20057;-48
2023/12/09 00:18:30;;;;;;;138.88;37.22;;;7.50;99.90;;;;;;4981496;28;20045;-47
2023/12/09 00:20:55;;;;;;;145.05;39.25;;;7.50;99.90;;;;;;4979819;28;20042;-47
2023/12/09 00:23:21;;;;;;;145.90;39.08;;;7.50;99.90;;;;;;4960912;28;20754;-46
2023/12/09 00:25:47;;;;;;;128.82;36.72;;;7.50;99.90;;;;;;4983220;28;20064;-46
2023/12/09 00:28:13;;;;;;;139.60;38.38;;;7.50;99.90;;;;;;4982271;28;21033;-49
2023/12/09 00:30:39;;;;;;;151.32;39.10;;;7.50;99.90;;;;;;4981068;28;20043;-47
2023/12/09 00:33:05;;;;;;;145.25;38.63;;;7.50;99.90;;;;;;4980852;28;20042;-48
2023/12/09 00:35:31;;;;;;;137.88;38.55;;;7.50;99.90;;;;;;4984622;28;20053;-47
2023/12/09 00:37:56;;;;;;;146.38;38.30;;;7.50;99.90;;;;;;4989304;28;20054;-47
2023/12/09 00:40:22;;;;;;;130.30;37.22;;;7.50;99.90;;;;;;4988601;28;21459;-46
2023/12/09 00:42:48;;;;;;;145.52;38.35;;;7.50;99.90;;;;;;4974724;28;20400;-46
2023/12/09 00:45:14;;;;;;;131.95;38.25;;;7.50;99.90;;;;;;4990263;28;20145;-49
2023/12/09 00:47:40;;;;;;;126.22;37.72;;;7.50;99.90;;;;;;4986337;28;20053;-47
2023/12/09 00:50:07;;;;;;;141.05;38.17;;;7.50;99.90;;;;;;4989340;28;20056;-45
2023/12/09 00:52:33;;;;;;;132.50;37.03;;;7.50;99.90;;;;;;4987810;28;20073;-47
2023/12/09 00:55:00;;;;;;;133.07;38.60;;;7.60;99.90;;;;;;4986934;28;20045;-48
2023/12/09 00:57:26;;;;;;;145.93;36.58;;;7.60;99.90;;;;;;4986535;28;20037;-48
2023/12/09 00:59:52;;;;;;;125.45;37.97;;;7.60;99.90;;;;;;4991827;28;20057;-46
2023/12/09 01:02:18;;;;;;;123.25;36.30;;;7.60;99.90;;;;;;4969421;28;20046;-46
2023/12/09 01:04:44;;;;;;;127.13;35.75;;;7.60;99.90;;;;;;4990015;28;20378;-47
2023/12/09 01:07:10;;;;;;;113.78;35.60;;;7.60;99.90;;;;;;4990214;28;20481;-50
2023/12/09 01:09:35;;;;;;;117.78;34.13;;;7.60;99.90;;;;;;4989742;28;20572;-47
2023/12/09 01:12:02;;;;;;;130.80;34.25;;;7.50;99.90;;;;;;4985716;28;20037;-46
2023/12/09 01:14:27;;;;;;;105.93;33.40;;;7.60;99.90;;;;;;4986345;28;20065;-47
2023/12/09 01:16:53;;;;;;;116.25;34.38;;;7.60;99.90;;;;;;4988207;28;20120;-47
2023/12/09 01:19:19;;;;;;;115.65;34.53;;;7.60;99.90;;;;;;4988879;28;20085;-49
2023/12/09 01:21:44;;;;;;;114.28;33.45;;;7.60;99.90;;;;;;4987485;28;20050;-47
2023/12/09 01:24:10;;;;;;;108.80;33.08;;;7.60;99.90;;;;;;4987315;28;20628;-47
2023/12/09 01:26:36;;;;;;;107.97;33.05;;;7.60;99.90;;;;;;4986268;28;20041;-47
2023/12/09 01:29:03;;;;;;;106.38;33.50;;;7.60;99.90;;;;;;4984220;28;20041;-46
2023/12/09 01:31:29;;;;;;;108.60;32.40;;;7.60;99.90;;;;;;4987037;28;20100;-48
2023/12/09 01:33:55;;;;;;;106.10;34.20;;;7.60;99.90;;;;;;4986843;28;20556;-47
2023/12/09 01:36:21;;;;;;;104.75;32.33;;;7.60;99.90;;;;;;4988665;28;20064;-48
2023/12/09 01:38:46;;;;;;;119.80;32.78;;;7.60;99.90;;;;;;4986356;28;20507;-47
2023/12/09 01:41:12;;;;;;;99.07;32.30;;;7.60;99.90;;;;;;4982180;28;20735;-47
2023/12/09 01:43:38;;;;;;;101.93;33.67;;;7.60;99.90;;;;;;4986571;28;20060;-49
2023/12/09 01:46:06;;;;;;;100.50;32.45;;;7.60;99.90;;;;;;4986489;28;20056;-46
2023/12/09 01:48:33;;;;;;;108.68;32.65;;;7.70;99.90;;;;;;4984238;28;20376;-47
2023/12/09 01:51:01;;;;;;;95.38;31.77;;;7.70;99.90;;;;;;4984618;28;20145;-46
2023/12/09 01:53:27;;;;;;;106.65;31.60;;;7.70;99.90;;;;;;4983625;28;20600;-47
2023/12/09 01:55:54;;;;;;;97.72;31.80;;;7.70;99.90;;;;;;4985464;28;20045;-46
2023/12/09 01:58:20;;;;;;;95.80;31.70;;;7.70;99.90;;;;;;4985562;28;20309;-48
2023/12/09 02:00:46;;;;;;;91.55;31.63;;;7.70;99.90;;;;;;4982367;28;20494;-48
2023/12/09 02:03:11;;;;;;;94.70;30.17;;;7.70;99.90;;;;;;4984580;28;20514;-46
2023/12/09 02:05:37;;;;;;;104.07;30.15;;;7.70;99.90;;;;;;4985593;28;20050;-52
2023/12/09 02:08:03;;;;;;;80.55;31.67;;;7.70;99.90;;;;;;4983180;28;20120;-47
2023/12/09 02:10:29;;;;;;;88.03;30.02;;;7.70;99.90;;;;;;4983028;28;20061;-47
2023/12/09 02:13:04;;;;;;;93.55;29.88;;;7.70;99.90;;;;;;4982338;28;20038;-46
2023/12/09 02:15:37;;;;;;;81.18;29.45;;;7.70;99.90;;;;;;4984625;28;20046;-48
2023/12/09 02:18:07;;;;;;;84.63;28.75;;;7.70;99.90;;;;;;4988954;28;20045;-46
2023/12/09 02:20:33;;;;;;;86.28;29.73;;;7.70;99.90;;;;;;4986299;28;20042;-47
2023/12/09 02:23:06;;;;;;;73.60;27.27;;;7.70;99.90;;;;;;4984792;28;20640;-49
2023/12/09 02:25:33;;;;;;;83.57;29.65;;;7.70;99.90;;;;;;4990021;28;20146;-45
2023/12/09 02:28:04;;;;;;;81.88;28.48;;;7.70;99.90;;;;;;4992981;28;20564;-46
2023/12/09 02:30:40;;;;;;;89.75;27.75;;;7.60;99.90;;;;;;4990675;28;20054;-45
2023/12/09 02:33:08;;;;;;;72.32;27.40;;;7.70;99.90;;;;;;4985154;28;20041;-47
2023/12/09 02:35:37;;;;;;;86.68;28.65;;;7.70;99.90;;;;;;4988642;28;20131;-47
2023/12/09 02:38:04;;;;;;;71.80;28.70;;;7.70;99.90;;;;;;4987123;28;20054;-47
2023/12/09 02:40:31;;;;;;;75.85;28.80;;;7.80;99.90;;;;;;4988758;28;20364;-50
2023/12/09 02:42:57;;;;;;;79.50;28.55;;;7.80;99.90;;;;;;4988955;28;20064;-48
2023/12/09 02:45:22;;;;;;;89.65;27.70;;;7.80;99.90;;;;;;4987779;28;20498;-47
2023/12/09 02:47:48;;;;;;;81.15;27.67;;;7.80;99.90;;;;;;4987509;28;20406;-48
2023/12/09 02:50:14;;;;;;;86.90;26.90;;;7.80;99.90;;;;;;4982590;28;20124;-48
2023/12/09 02:52:41;;;;;;;70.72;26.25;;;7.80;99.90;;;;;;4992085;28;20068;-49
2023/12/09 02:55:07;;;;;;;75.05;27.38;;;7.80;99.90;;;;;;4986346;28;20050;-50
2023/12/09 02:57:34;;;;;;;76.10;26.60;;;7.80;99.90;;;;;;4990501;28;20483;-46
2023/12/09 03:00:00;;;;;;;79.63;26.92;;;7.80;99.90;;;;;;4985965;28;20050;-48
2023/12/09 03:02:25;;;;;;;78.05;25.70;;;7.80;99.90;;;;;;4986789;28;20143;-46
2023/12/09 03:04:51;;;;;;;73.10;26.00;;;7.80;99.90;;;;;;4963519;28;20136;-47
2023/12/09 03:07:20;;;;;;;81.43;25.55;;;7.80;99.90;;;;;;4988255;28;20415;-46
2023/12/09 03:09:46;;;;;;;75.95;25.90;;;7.80;99.90;;;;;;4989241;28;20108;-48
2023/12/09 03:12:12;;;;;;;74.40;24.95;;;7.80;99.90;;;;;;4985383;28;20797;-49
2023/12/09 03:14:38;;;;;;;79.28;25.83;;;7.80;99.90;;;;;;4988571;28;20483;-46
2023/12/09 03:17:05;;;;;;;75.43;25.45;;;7.80;99.90;;;;;;4988356;28;20410;-46
2023/12/09 03:19:30;;;;;;;70.32;24.98;;;7.80;99.90;;;;;;4987130;28;20096;-45
2023/12/09 03:21:57;;;;;;;84.72;24.63;;;7.80;99.90;;;;;;4985069;28;20148;-46
2023/12/09 03:24:23;;;;;;;66.13;24.83;;;7.70;99.90;;;;;;4983244;28;20049;-48
2023/12/09 03:26:52;;;;;;;69.18;23.33;;;7.80;99.90;;;;;;4972162;28;20052;-46
2023/12/09 03:29:18;;;;;;;60.80;22.52;;;7.80;99.90;;;;;;4987198;28;20646;-48
2023/12/09 03:31:44;;;;;;;58.97;21.58;;;7.70;99.90;;;;;;4952321;28;20045;-46
2023/12/09 03:34:09;;;;;;;62.28;21.15;;;7.70;99.90;;;;;;4985704;28;20107;-45
2023/12/09 03:36:35;;;;;;;64.75;21.70;;;7.70;99.90;;;;;;4945939;28;1110476;-49
2023/12/09 03:39:01;;;;;;;60.35;21.50;;;7.70;99.90;;;;;;4984056;28;20104;-45
2023/12/09 03:41:27;;;;;;;67.28;22.13;;;7.70;99.90;;;;;;4984242;28;20489;-50
2023/12/09 03:43:52;;;;;;;66.57;22.85;;;7.80;99.90;;;;;;4973152;28;20046;-49
2023/12/09 03:46:18;;;;;;;51.60;20.45;;;7.70;99.90;;;;;;4986296;28;20619;-49
2023/12/09 03:48:44;;;;;;;64.15;21.73;;;7.70;99.90;;;;;;4982707;28;20045;-47
2023/12/09 03:51:09;;;;;;;61.47;20.95;;;7.70;99.90;;;;;;4984726;28;20653;-47
2023/12/09 03:53:35;;;;;;;57.92;19.92;;;7.70;99.90;;;;;;4985067;28;20495;-46
2023/12/09 03:56:01;;;;;;;50.58;20.15;;;7.70;99.90;;;;;;4982332;28;20046;-47
2023/12/09 03:58:26;;;;;;;47.40;20.08;;;7.70;99.90;;;;;;4986942;28;20077;-46
2023/12/09 04:00:52;;;;;;;61.03;19.77;;;7.70;99.90;;;;;;4985631;28;20042;-46
2023/12/09 04:03:18;;;;;;;61.75;21.00;;;7.70;99.90;;;;;;4984546;28;20046;-46
2023/12/09 04:05:44;;;;;;;49.30;19.30;;;7.60;99.90;;;;;;4968242;28;20092;-47
2023/12/09 04:08:10;;;;;;;59.13;19.60;;;7.60;99.90;;;;;;4982671;28;20046;-46
2023/12/09 04:10:36;;;;;;;55.15;19.67;;;7.60;99.90;;;;;;4963907;28;20422;-48
2023/12/09 04:13:02;;;;;;;61.78;20.25;;;7.70;99.90;;;;;;4983713;28;20136;-47
2023/12/09 04:15:28;;;;;;;60.40;21.00;;;7.60;99.90;;;;;;4981674;28;20127;-46
2023/12/09 04:17:54;;;;;;;60.97;20.40;;;7.70;99.90;;;;;;4981269;28;20042;-46
2023/12/09 04:20:20;;;;;;;49.97;19.80;;;7.70;99.90;;;;;;4985995;28;20702;-47
2023/12/09 04:22:47;;;;;;;59.38;20.33;;;7.60;99.90;;;;;;4990530;28;20038;-46
2023/12/09 04:25:12;;;;;;;58.47;20.58;;;7.60;99.90;;;;;;4988479;28;20885;-47
2023/12/09 04:27:39;;;;;;;57.80;20.52;;;7.60;99.90;;;;;;4994574;28;20050;-46
2023/12/09 04:30:05;;;;;;;52.75;21.08;;;7.60;99.90;;;;;;4993566;28;20085;-47
2023/12/09 04:32:31;;;;;;;73.25;21.52;;;7.60;99.90;;;;;;4995630;28;20418;-47
2023/12/09 04:35:00;;;;;;;60.38;20.17;;;7.60;99.90;;;;;;4995263;28;20049;-46
2023/12/09 04:37:26;;;;;;;58.40;19.20;;;7.60;99.90;;;;;;4994284;28;20069;-48
2023/12/09 04:39:51;;;;;;;51.65;18.50;;;7.60;99.90;;;;;;4993221;28;20053;-47
2023/12/09 04:42:18;;;;;;;61.40;19.48;;;7.60;99.90;;;;;;4990177;28;20049;-49
2023/12/09 04:44:44;;;;;;;48.08;19.20;;;7.60;99.90;;;;;;4993927;28;20181;-46
2023/12/09 04:47:10;;;;;;;50.60;18.33;;;7.60;99.90;;;;;;4987733;28;20731;-47
2023/12/09 04:49:36;;;;;;;52.17;18.77;;;7.60;99.90;;;;;;4989855;28;20041;-46
2023/12/09 04:52:01;;;;;;;56.60;17.88;;;7.60;99.90;;;;;;4988886;28;21251;-46
2023/12/09 04:54:27;;;;;;;56.88;18.27;;;7.60;99.90;;;;;;4987324;28;20150;-48
2023/12/09 04:56:53;;;;;;;57.10;18.77;;;7.60;99.90;;;;;;4990369;28;21281;-47
2023/12/09 04:59:19;;;;;;;57.15;18.45;;;7.60;99.90;;;;;;4991728;28;20554;-46
2023/12/09 05:01:45;;;;;;;51.60;18.63;;;7.60;99.90;;;;;;4974006;28;20177;-47
2023/12/09 05:04:11;;;;;;;54.50;17.95;;;7.60;99.90;;;;;;4971337;28;20817;-46
2023/12/09 05:06:37;;;;;;;53.33;17.95;;;7.60;99.90;;;;;;4992428;28;20083;-46
2023/12/09 05:09:02;;;;;;;56.60;18.88;;;7.60;99.90;;;;;;4987132;28;20066;-46
2023/12/09 05:11:28;;;;;;;49.72;18.08;;;7.60;99.90;;;;;;4988017;28;20053;-48
2023/12/09 05:13:54;;;;;;;49.40;18.58;;;7.60;99.90;;;;;;4991429;28;20068;-47
2023/12/09 05:16:19;;;;;;;46.10;17.25;;;7.60;99.90;;;;;;4988734;28;20081;-47
2023/12/09 05:18:45;;;;;;;51.03;18.30;;;7.50;99.90;;;;;;4966089;28;20041;-46
2023/12/09 05:21:12;;;;;;;47.90;18.05;;;7.50;99.90;;;;;;4985912;28;20052;-48
2023/12/09 05:23:38;;;;;;;51.88;17.45;;;7.50;99.90;;;;;;4987450;28;20919;-45
2023/12/09 05:26:04;;;;;;;54.33;17.45;;;7.50;99.90;;;;;;4986303;28;20046;-50
2023/12/09 05:28:30;;;;;;;50.67;17.23;;;7.50;99.90;;;;;;4969848;28;20064;-50
2023/12/09 05:30:56;;;;;;;62.47;17.23;;;7.50;99.90;;;;;;4987946;28;20053;-46
2023/12/09 05:33:22;;;;;;;58.22;16.40;;;7.50;99.90;;;;;;4983854;28;20064;-47
2023/12/09 05:35:48;;;;;;;40.65;16.00;;;7.50;99.90;;;;;;4984166;28;20809;-46
2023/12/09 05:38:14;;;;;;;50.38;16.27;;;7.50;99.90;;;;;;4985696;28;20169;-47
2023/12/09 05:40:40;;;;;;;56.45;16.60;;;7.50;99.90;;;;;;4981240;28;20498;-49
2023/12/09 05:43:05;;;;;;;50.05;15.60;;;7.50;99.90;;;;;;4977388;28;20042;-48
2023/12/09 05:45:32;;;;;;;56.42;16.20;;;7.50;99.90;;;;;;4958404;28;20046;-48
2023/12/09 05:47:58;;;;;;;59.22;17.55;;;7.50;99.90;;;;;;4975639;28;20096;-46
2023/12/09 05:50:23;;;;;;;45.65;16.67;;;7.60;99.90;;;;;;4977617;28;20105;-46
2023/12/09 05:52:49;;;;;;;45.70;16.15;;;7.60;99.90;;;;;;4960683;28;21968;-47
2023/12/09 05:55:16;;;;;;;55.05;16.30;;;7.50;99.90;;;;;;4979932;28;20519;-46
2023/12/09 05:57:42;;;;;;;53.08;16.75;;;7.50;99.90;;;;;;4975094;28;20133;-48
2023/12/09 06:00:10;;;;;;;64.25;16.70;;;7.50;99.90;;;;;;4976422;28;20042;-47
2023/12/09 06:02:36;;;;;;;52.92;16.75;;;7.60;99.90;;;;;;4972623;28;20046;-47
2023/12/09 06:05:03;;;;;;;50.83;16.30;;;7.60;99.90;;;;;;4975985;28;20627;-47
2023/12/09 06:07:28;;;;;;;50.33;17.00;;;7.60;99.90;;;;;;4983054;28;20092;-46
2023/12/09 06:09:54;;;;;;;49.97;15.73;;;7.50;99.90;;;;;;4981654;28;20050;-46
2023/12/09 06:12:20;;;;;;;48.42;15.68;;;7.50;99.90;;;;;;4977927;28;20077;-49
2023/12/09 06:14:46;;;;;;;42.88;16.20;;;7.50;99.90;;;;;;4980022;28;20496;-50
2023/12/09 06:17:11;;;;;;;55.72;15.90;;;7.60;99.90;;;;;;4991617;28;20478;-46
2023/12/09 06:19:37;;;;;;;50.63;15.52;;;7.50;99.90;;;;;;4985963;28;20045;-50
2023/12/09 06:22:03;;;;;;;48.40;15.45;;;7.50;99.90;;;;;;4988479;28;20486;-48
2023/12/09 06:24:29;;;;;;;43.03;15.82;;;7.50;99.90;;;;;;4988917;28;20060;-46
2023/12/09 06:26:55;;;;;;;44.08;16.08;;;7.50;99.90;;;;;;4986334;28;20049;-48
2023/12/09 06:29:20;;;;;;;53.83;14.98;;;7.50;99.90;;;;;;4991706;28;20042;-46
2023/12/09 06:31:46;;;;;;;44.13;15.32;;;7.50;99.90;;;;;;4991614;28;20042;-46
2023/12/09 06:34:12;;;;;;;52.30;14.90;;;7.50;99.90;;;;;;4970454;28;20130;-46
2023/12/09 06:36:37;;;;;;;47.30;15.45;;;7.50;99.90;;;;;;4992067;28;20061;-47
2023/12/09 06:39:03;;;;;;;55.33;14.63;;;7.50;99.90;;;;;;4992018;28;20275;-46
2023/12/09 06:41:29;;;;;;;50.65;14.95;;;7.50;99.90;;;;;;4987098;28;20042;-47
2023/12/09 06:43:54;;;;;;;57.50;15.82;;;7.50;99.90;;;;;;4990988;28;20411;-46
2023/12/09 06:46:20;;;;;;;45.55;15.27;;;7.50;99.90;;;;;;4975264;28;20052;-48
2023/12/09 06:48:46;;;;;;;53.47;14.73;;;7.50;99.90;;;;;;4990841;28;20499;-46
2023/12/09 06:51:15;;;;;;;53.55;13.82;;;7.50;99.90;;;;;;4965834;28;20053;-49
2023/12/09 06:53:42;;;;;;;47.95;15.38;;;7.40;99.90;;;;;;4987774;28;20133;-46
2023/12/09 06:56:08;;;;;;;41.45;13.23;;;7.50;99.90;;;;;;4987734;28;20041;-48
2023/12/09 06:58:36;;;;;;;45.25;14.10;;;7.50;99.90;;;;;;4967173;28;20042;-45
2023/12/09 07:01:02;;;;;;;39.45;13.27;;;7.50;99.90;;;;;;4969479;28;20159;-46
2023/12/09 07:03:27;;;;;;;44.90;13.70;;;7.40;99.90;;;;;;4969637;28;20054;-49
2023/12/09 07:05:53;;;;;;;40.60;13.80;;;7.40;99.90;;;;;;4983639;28;20046;-49
2023/12/09 07:08:19;;;;;;;40.50;12.43;;;7.40;99.90;;;;;;4985198;28;20114;-48
2023/12/09 07:10:46;;;;;;;40.92;14.07;;;7.40;99.90;;;;;;4985531;28;20089;-48
2023/12/09 07:13:12;;;;;;;50.00;13.30;;;7.40;99.90;;;;;;4985427;28;20038;-48
2023/12/09 07:15:37;;;;;;;45.08;13.82;;;7.40;99.90;;;;;;4986581;28;20042;-46
2023/12/09 07:18:04;;;;;;;42.83;13.13;;;7.40;99.90;;;;;;4970803;28;21984;-48
2023/12/09 07:20:30;;;;;;;38.05;12.98;;;7.40;99.90;;;;;;4982769;28;20065;-47
2023/12/09 07:22:55;;;;;;;44.22;12.98;;;7.50;99.90;;;;;;4987495;28;20789;-47
2023/12/09 07:25:23;;;;;;;36.17;12.98;;;7.40;99.90;;;;;;4997887;28;20042;-46
2023/12/09 07:27:50;;;;;;;38.55;12.63;;;7.40;99.90;;;;;;4980301;28;20049;-46
2023/12/09 07:30:16;;;;;;;37.45;12.70;;;7.40;99.90;;;;;;4991619;28;20372;-46
2023/12/09 07:32:42;;;;;;;40.20;13.70;;;7.40;99.90;;;;;;4987564;28;20281;-47
2023/12/09 07:35:08;;;;;;;42.03;12.90;;;7.30;99.90;;;;;;4990990;28;20521;-49
2023/12/09 07:37:34;;;;;;;49.63;13.85;;;7.40;99.90;;;;;;4991748;28;20054;-46
2023/12/09 07:40:00;;;;;;;39.00;12.88;;;7.30;99.90;;;;;;4994597;28;20080;-47
2023/12/09 07:42:25;;;;;;;40.33;12.70;;;7.30;99.90;;;;;;4978251;28;20069;-46
2023/12/09 07:44:51;;;;;;;35.15;12.10;;;7.30;99.90;;;;;;4990601;28;20044;-45
2023/12/09 07:47:17;;;;;;;39.00;12.82;;;7.30;99.90;;;;;;4992513;28;20494;-46
2023/12/09 07:49:42;;;;;;;37.25;12.95;;;7.30;99.90;;;;;;4976280;28;20144;-47
2023/12/09 07:52:08;;;;;;;38.53;12.88;;;7.20;99.90;;;;;;4991120;28;20049;-47
2023/12/09 07:54:34;;;;;;;30.35;11.88;;;7.20;99.90;;;;;;4980302;28;20034;-46
2023/12/09 07:56:59;;;;;;;37.20;12.00;;;7.20;99.90;;;;;;4988237;28;20053;-47
2023/12/09 07:59:25;;;;;;;39.10;12.00;;;7.20;99.90;;;;;;4987808;28;20045;-46
2023/12/09 08:01:51;;;;;;;37.95;12.95;;;7.20;99.90;;;;;;4988285;28;20045;-47
2023/12/09 08:04:16;;;;;;;34.40;11.70;;;7.20;99.90;;;;;;4990997;28;20034;-47
2023/12/09 08:06:42;;;;;;;34.47;12.65;;;7.20;99.90;;;;;;4990176;28;20048;-49
2023/12/09 08:09:09;;;;;;;43.30;11.88;;;7.20;99.90;;;;;;4988643;28;20033;-48
2023/12/09 08:11:35;;;;;;;40.05;11.93;;;7.10;99.90;;;;;;4993564;28;21479;-46
2023/12/09 08:14:00;;;;;;;41.45;12.10;;;7.10;99.90;;;;;;4991799;28;20046;-47
2023/12/09 08:16:26;;;;;;;33.42;11.45;;;7.10;99.90;;;;;;4987111;28;20034;-46
2023/12/09 08:18:53;;;;;;;34.90;11.88;;;7.10;99.90;;;;;;4992196;28;20106;-47
2023/12/09 08:21:19;;;;;;;41.72;11.90;;;7.10;99.90;;;;;;4989631;28;20561;-46
2023/12/09 08:23:44;;;;;;;47.35;12.63;;;7.10;99.90;;;;;;4985884;28;20050;-47
2023/12/09 08:26:16;;;;;;;43.78;11.63;;;7.10;99.90;;;;;;4990169;28;20057;-47
2023/12/09 08:28:42;;;;;;;37.77;11.60;;;7.10;99.90;;;;;;4988474;28;20068;-46
2023/12/09 08:31:08;;;;;;;38.63;11.70;;;7.10;99.90;;;;;;4984837;28;20050;-48
2023/12/09 08:33:33;;;;;;;38.05;11.75;;;7.10;99.90;;;;;;4986000;28;20038;-47
2023/12/09 08:35:59;;;;;;;37.28;10.77;;;7.10;99.90;;;;;;4986921;28;20066;-46
2023/12/09 08:38:25;;;;;;;33.55;11.45;;;7.10;99.90;;;;;;4982919;28;20124;-48
2023/12/09 08:40:51;;;;;;;40.78;11.48;;;7.10;99.90;;;;;;4984134;28;20132;-46
2023/12/09 08:43:17;;;;;;;31.88;11.15;;;7.10;99.90;;;;;;4987356;28;20038;-48
2023/12/09 08:45:42;;;;;;;32.47;11.52;;;7.10;99.90;;;;;;4996773;28;20046;-46
2023/12/09 08:48:08;;;;;;;35.28;10.73;;;7.10;99.90;;;;;;4970648;28;20060;-47
2023/12/09 08:50:34;;;;;;;30.88;11.30;;;7.10;99.90;;;;;;4981292;28;20042;-50
2023/12/09 08:52:59;;;;;;;37.25;10.80;;;7.10;99.90;;;;;;4996215;28;20411;-47
2023/12/09 08:55:25;;;;;;;39.60;9.93;;;7.10;99.90;;;;;;4979102;28;20042;-47
2023/12/09 08:57:51;;;;;;;29.58;9.70;;;7.10;99.90;;;;;;4989055;28;20042;-48
2023/12/09 09:00:20;;;;;;;38.42;10.30;;;7.10;99.90;;;;;;4976097;28;20037;-47
2023/12/09 09:02:46;;;;;;;28.30;8.88;;;7.10;99.90;;;;;;4990880;28;21111;-46
2023/12/09 09:05:12;;;;;;;36.00;9.23;;;7.10;99.90;;;;;;4993197;28;20065;-48
2023/12/09 09:07:40;;;;;;;32.92;9.35;;;7.10;99.90;;;;;;4991731;28;20073;-46
2023/12/09 09:10:07;;;;;;;32.53;9.55;;;7.10;99.90;;;;;;4971057;28;20050;-49
2023/12/09 09:12:32;;;;;;;26.75;8.98;;;7.10;99.90;;;;;;4991472;28;20038;-48
2023/12/09 09:14:58;;;;;;;32.65;9.15;;;7.10;99.90;;;;;;4997309;28;20108;-45
2023/12/09 09:17:24;;;;;;;38.70;10.05;;;7.10;99.90;;;;;;4996834;28;20046;-47
2023/12/09 09:19:50;;;;;;;26.27;8.60;;;7.10;99.90;;;;;;4997810;28;20133;-47
2023/12/09 09:22:16;;;;;;;35.75;9.10;;;7.10;99.90;;;;;;4963282;28;20052;-47
2023/12/09 09:24:42;;;;;;;27.05;7.70;;;7.10;99.90;;;;;;4994140;28;20470;-47
2023/12/09 09:27:08;;;;;;;29.83;8.07;;;7.10;99.90;;;;;;4976705;28;20057;-47
2023/12/09 09:29:34;;;;;;;33.90;9.30;;;7.10;99.90;;;;;;4992155;28;20537;-46
2023/12/09 09:31:59;;;;;;;28.23;8.07;;;7.10;99.90;;;;;;4992546;28;20087;-47
2023/12/09 09:34:25;;;;;;;34.55;8.15;;;7.10;99.90;;;;;;4976074;28;20046;-48
2023/12/09 09:36:51;;;;;;;32.42;7.35;;;7.10;99.90;;;;;;4992389;28;20053;-46
2023/12/09 09:39:17;;;;;;;28.73;7.63;;;7.20;99.90;;;;;;4990399;28;20050;-46
2023/12/09 09:42:03;;;;;;;31.00;8.23;;;7.20;99.90;;;;;;4991054;28;20030;-46
2023/12/09 09:44:36;;;;;;;22.95;6.00;;;7.20;99.90;;;;;;4984934;28;20053;-48
2023/12/09 09:47:02;;;;;;;;;;;7.20;99.90;;;;;;4988763;28;20421;-48
2023/12/09 09:49:33;;;;;;;19.17;6.60;;;7.20;99.90;;;;;;4971375;28;20297;-46
2023/12/09 09:52:02;;;;;;;26.90;6.80;;;7.20;99.90;;;;;;4988982;28;20145;-47
2023/12/09 09:54:30;;;;;;;23.85;6.50;;;7.20;99.90;;;;;;4985644;28;20042;-46
2023/12/09 09:56:58;;;;;;;27.95;6.75;;;7.30;99.90;;;;;;4989766;28;20407;-46
2023/12/09 09:59:25;;;;;;;23.45;6.53;;;7.30;99.90;;;;;;4998174;28;20048;-48
2023/12/09 10:01:52;;;;;;;27.48;6.05;;;7.30;99.90;;;;;;4998090;28;20189;-45
2023/12/09 10:04:17;;;;;;;25.58;5.78;;;7.30;99.90;;;;;;4997313;28;20525;-47
2023/12/09 10:06:44;;;;;;;22.38;6.03;;;7.30;99.90;;;;;;4996101;28;20037;-48
2023/12/09 10:09:10;;;;;;;21.08;6.25;;;7.30;99.90;;;;;;5000072;28;20663;-48
2023/12/09 10:11:37;;;;;;;21.00;5.97;;;7.30;99.90;;;;;;4999698;28;20339;-48
2023/12/09 10:14:04;;;;;;;21.83;5.47;;;7.30;99.90;;;;;;4997665;28;20064;-46
2023/12/09 10:16:29;;;;;;;26.20;5.70;;;7.30;99.90;;;;;;4992724;28;20100;-46
2023/12/09 10:18:56;;;;;;;16.67;5.70;;;7.30;99.90;;;;;;4994998;28;20041;-46
2023/12/09 10:21:22;;;;;;;22.17;5.25;;;7.30;99.90;;;;;;4992716;28;20045;-46
2023/12/09 10:23:47;;;;;;;19.77;5.65;;;7.20;99.90;;;;;;4995790;28;20487;-46
2023/12/09 10:26:14;;;;;;;25.67;5.80;;;7.30;99.90;;;;;;4996062;28;20045;-46
2023/12/09 10:28:40;;;;;;;18.35;4.90;;;7.30;99.90;;;;;;4992859;28;20077;-47
2023/12/09 10:31:07;;;;;;;23.73;5.85;;;7.30;99.90;;;;;;4991935;28;20129;-48
2023/12/09 10:33:34;;;;;;;19.67;5.30;;;7.30;99.90;;;;;;4989519;28;20042;-46
2023/12/09 10:36:01;;;;;;;22.23;5.38;;;7.30;99.90;;;;;;4992414;28;20085;-47
2023/12/09 10:38:27;;;;;;;22.92;5.38;;;7.40;99.90;;;;;;4990810;28;20049;-48
2023/12/09 10:40:56;;;;;;;22.65;4.90;;;7.40;99.90;;;;;;4989511;28;20080;-46
2023/12/09 10:43:21;;;;;;;23.05;5.43;;;7.40;99.90;;;;;;4987295;28;20582;-49
2023/12/09 10:45:47;;;;;;;16.33;5.20;;;7.40;99.90;;;;;;4984808;28;20041;-47
2023/12/09 10:48:14;;;;;;;18.77;4.50;;;7.40;99.90;;;;;;4984205;28;20037;-47
2023/12/09 10:50:44;;;;;;;22.15;4.90;;;7.50;99.90;;;;;;4989148;28;20053;-47
2023/12/09 10:53:10;;;;;;;23.65;4.70;;;7.50;99.90;;;;;;4993273;28;20108;-46
2023/12/09 10:55:36;;;;;;;18.20;4.45;;;7.60;99.90;;;;;;4990164;28;20144;-48
2023/12/09 10:58:04;;;;;;;19.73;4.63;;;7.60;99.90;;;;;;4994018;28;20398;-47
2023/12/09 11:00:32;;;;;;;16.92;4.50;;;7.60;99.90;;;;;;4992656;28;20438;-48
2023/12/09 11:02:59;;;;;;;19.58;4.82;;;7.60;99.90;;;;;;4992673;28;20037;-48
2023/12/09 11:05:25;;;;;;;24.88;4.88;;;7.60;99.90;;;;;;4976000;28;20054;-49
2023/12/09 11:07:52;;;;;;;19.10;4.63;;;7.70;99.90;;;;;;4996628;28;20057;-47
2023/12/09 11:10:19;;;;;;;16.05;4.07;;;7.70;99.90;;;;;;4996808;28;20054;-45
2023/12/09 11:12:47;;;;;;;23.02;4.82;;;7.70;99.90;;;;;;4983803;28;20380;-46
2023/12/09 11:15:13;;;;;;;18.70;4.53;;;7.70;99.90;;;;;;4993272;28;20508;-50
2023/12/09 11:17:49;;;;;;;11.38;4.25;;;7.70;99.90;;;;;;4994126;28;20145;-45
2023/12/09 11:20:21;;;;;;;20.92;3.80;;;7.70;99.90;;;;;;4973699;28;20054;-47
2023/12/09 11:22:47;;;;;;;11.60;3.65;;;7.70;99.90;;;;;;4992254;28;20045;-46
2023/12/09 11:25:18;;;;;;;16.75;4.30;;;7.70;99.90;;;;;;4988606;28;20042;-45
2023/12/09 11:27:48;;;;;;;13.52;3.85;;;7.70;99.90;;;;;;4988960;28;20048;-47
2023/12/09 11:30:34;;;;;;;16.10;4.13;;;7.90;99.90;;;;;;4990439;28;20092;-47
2023/12/09 11:33:01;;;;;;;15.95;3.55;;;7.80;99.90;;;;;;4990352;28;20619;-45
2023/12/09 11:35:28;;;;;;;15.25;3.25;;;7.70;99.90;;;;;;4984335;28;20074;-46
2023/12/09 11:37:56;;;;;;;18.15;4.03;;;7.70;99.90;;;;;;4986743;28;20604;-45
2023/12/09 11:40:22;;;;;;;15.45;3.33;;;7.70;99.90;;;;;;4981687;28;20050;-46
2023/12/09 11:42:49;;;;;;;15.82;4.13;;;7.70;99.90;;;;;;4984459;28;20042;-47
2023/12/09 11:45:15;;;;;;;15.27;3.50;;;7.70;99.90;;;;;;4976070;28;20635;-48
2023/12/09 11:47:42;;;;;;;16.90;4.25;;;7.70;99.90;;;;;;4980455;28;20601;-47
2023/12/09 11:50:08;;;;;;;14.10;3.78;;;7.70;99.90;;;;;;4985803;28;20495;-49
2023/12/09 11:52:34;;;;;;;14.05;3.80;;;7.70;99.90;;;;;;4991773;28;20902;-46
2023/12/09 11:55:00;;;;;;;15.80;4.05;;;7.70;99.90;;;;;;4993448;28;20049;-47
2023/12/09 11:57:30;;;;;;;13.32;3.63;;;7.80;99.90;;;;;;4993099;28;20263;-51
2023/12/09 11:59:56;;;;;;;13.50;3.92;;;7.80;99.90;;;;;;4986033;28;20096;-46
2023/12/09 12:02:22;;;;;;;13.00;3.40;;;7.80;99.90;;;;;;4996411;28;20505;-50
2023/12/09 12:04:48;;;;;;;15.43;4.18;;;7.80;99.90;;;;;;4959572;28;20050;-49
2023/12/09 12:07:14;;;;;;;16.42;3.88;;;7.80;99.90;;;;;;4992619;28;20577;-45
2023/12/09 12:09:40;;;;;;;13.20;3.97;;;7.80;99.90;;;;;;4992883;28;20060;-46
2023/12/09 12:12:07;;;;;;;16.60;3.92;;;7.80;99.90;;;;;;4991985;28;20470;-47
2023/12/09 12:14:32;;;;;;;16.98;4.50;;;7.80;99.90;;;;;;4971965;28;20038;-46
2023/12/09 12:16:59;;;;;;;13.25;3.80;;;7.80;99.90;;;;;;4988027;28;20034;-49
2023/12/09 12:19:29;;;;;;;12.13;3.75;;;7.80;99.90;;;;;;4992535;28;20436;-47
2023/12/09 12:21:55;;;;;;;12.95;3.90;;;7.90;99.90;;;;;;4991081;28;20070;-47
2023/12/09 12:24:21;;;;;;;13.30;3.78;;;7.80;99.90;;;;;;4992341;28;20148;-47
2023/12/09 12:26:47;;;;;;;13.45;3.70;;;7.80;99.90;;;;;;4993662;28;20042;-46
2023/12/09 12:29:22;;;;;;;10.57;3.42;;;7.80;99.90;;;;;;4989295;28;20064;-46
2023/12/09 12:31:51;;;;;;;10.95;3.55;;;7.90;99.90;;;;;;4989638;28;20490;-46
2023/12/09 12:34:18;;;;;;;12.25;3.50;;;7.80;99.90;;;;;;4985305;28;20462;-47